METAR Data
IDs: Format: Raw Decoded Include TAF

Data at: 1253 UTC 10 Jul 2020

KALM 101235Z AUTO 36008KT 10SM CLR 26/03 A3009 RMK AO2